sensor_id;sensor_type;location;lat;lon;timestamp;temperature;humidity
65396;HTU21D;52004;45.136;39.010;2023-09-19T00:01:40;16.17;52.49
65396;HTU21D;52004;45.136;39.010;2023-09-19T00:04:07;16.14;52.51
65396;HTU21D;52004;45.136;39.010;2023-09-19T00:06:36;16.11;52.51
65396;HTU21D;52004;45.136;39.010;2023-09-19T00:09:02;16.08;52.58
65396;HTU21D;52004;45.136;39.010;2023-09-19T00:11:28;16.07;52.57
65396;HTU21D;52004;45.136;39.010;2023-09-19T00:13:54;16.06;52.62
65396;HTU21D;52004;45.136;39.010;2023-09-19T00:16:20;16.05;52.62
65396;HTU21D;52004;45.136;39.010;2023-09-19T00:18:46;16.01;52.62
65396;HTU21D;52004;45.136;39.010;2023-09-19T00:21:14;16.00;52.69
65396;HTU21D;52004;45.136;39.010;2023-09-19T00:23:41;15.98;52.69
65396;HTU21D;52004;45.136;39.010;2023-09-19T00:26:07;15.95;52.71
65396;HTU21D;52004;45.136;39.010;2023-09-19T00:28:33;15.91;52.75
65396;HTU21D;52004;45.136;39.010;2023-09-19T00:30:59;15.88;52.78
65396;HTU21D;52004;45.136;39.010;2023-09-19T00:33:27;15.83;52.82
65396;HTU21D;52004;45.136;39.010;2023-09-19T00:35:55;15.80;52.87
65396;HTU21D;52004;45.136;39.010;2023-09-19T00:38:22;15.74;52.91
65396;HTU21D;52004;45.136;39.010;2023-09-19T00:40:52;15.71;52.95
65396;HTU21D;52004;45.136;39.010;2023-09-19T00:43:21;15.68;53.00
65396;HTU21D;52004;45.136;39.010;2023-09-19T00:45:51;15.67;53.05
65396;HTU21D;52004;45.136;39.010;2023-09-19T00:48:17;15.63;53.05
65396;HTU21D;52004;45.136;39.010;2023-09-19T00:50:44;15.61;53.12
65396;HTU21D;52004;45.136;39.010;2023-09-19T00:53:13;15.59;53.07
65396;HTU21D;52004;45.136;39.010;2023-09-19T00:55:39;15.56;53.13
65396;HTU21D;52004;45.136;39.010;2023-09-19T00:58:09;15.53;53.16
65396;HTU21D;52004;45.136;39.010;2023-09-19T01:00:36;15.51;53.19
65396;HTU21D;52004;45.136;39.010;2023-09-19T01:03:02;15.48;53.23
65396;HTU21D;52004;45.136;39.010;2023-09-19T01:05:28;15.43;53.25
65396;HTU21D;52004;45.136;39.010;2023-09-19T01:07:57;15.40;53.27
65396;HTU21D;52004;45.136;39.010;2023-09-19T01:10:24;15.37;53.30
65396;HTU21D;52004;45.136;39.010;2023-09-19T01:23:16;15.18;53.54
65396;HTU21D;52004;45.136;39.010;2023-09-19T01:26:04;15.14;53.54
65396;HTU21D;52004;45.136;39.010;2023-09-19T01:31:04;15.06;53.62
65396;HTU21D;52004;45.136;39.010;2023-09-19T01:36:21;14.96;53.66
65396;HTU21D;52004;45.136;39.010;2023-09-19T01:38:48;14.93;53.69
65396;HTU21D;52004;45.136;39.010;2023-09-19T01:41:15;14.88;53.79
65396;HTU21D;52004;45.136;39.010;2023-09-19T01:43:43;14.86;53.84
65396;HTU21D;52004;45.136;39.010;2023-09-19T01:48:54;14.82;53.90
65396;HTU21D;52004;45.136;39.010;2023-09-19T01:51:37;14.80;53.93
65396;HTU21D;52004;45.136;39.010;2023-09-19T01:54:09;14.74;53.95
65396;HTU21D;52004;45.136;39.010;2023-09-19T01:56:36;14.71;53.98
65396;HTU21D;52004;45.136;39.010;2023-09-19T01:59:05;14.68;54.04
65396;HTU21D;52004;45.136;39.010;2023-09-19T02:01:32;14.65;54.07
65396;HTU21D;52004;45.136;39.010;2023-09-19T02:03:59;14.62;54.10
65396;HTU21D;52004;45.136;39.010;2023-09-19T02:06:25;14.59;54.14
65396;HTU21D;52004;45.136;39.010;2023-09-19T02:08:53;14.53;54.14
65396;HTU21D;52004;45.136;39.010;2023-09-19T02:11:19;14.51;54.20
65396;HTU21D;52004;45.136;39.010;2023-09-19T02:13:45;14.44;54.22
65396;HTU21D;52004;45.136;39.010;2023-09-19T02:16:11;14.39;54.31
65396;HTU21D;52004;45.136;39.010;2023-09-19T02:18:38;14.35;54.37
65396;HTU21D;52004;45.136;39.010;2023-09-19T02:21:04;14.30;54.42
65396;HTU21D;52004;45.136;39.010;2023-09-19T02:23:32;14.29;54.45
65396;HTU21D;52004;45.136;39.010;2023-09-19T02:25:59;14.26;54.42
65396;HTU21D;52004;45.136;39.010;2023-09-19T02:28:26;14.23;54.51
65396;HTU21D;52004;45.136;39.010;2023-09-19T02:30:55;14.19;54.54
65396;HTU21D;52004;45.136;39.010;2023-09-19T02:33:21;14.15;54.57
65396;HTU21D;52004;45.136;39.010;2023-09-19T02:35:54;14.13;54.60
65396;HTU21D;52004;45.136;39.010;2023-09-19T02:38:20;14.12;54.64
65396;HTU21D;52004;45.136;39.010;2023-09-19T02:40:50;14.09;54.67
65396;HTU21D;52004;45.136;39.010;2023-09-19T02:43:16;14.08;54.66
65396;HTU21D;52004;45.136;39.010;2023-09-19T02:45:42;14.05;54.70
65396;HTU21D;52004;45.136;39.010;2023-09-19T02:48:08;14.04;54.74
65396;HTU21D;52004;45.136;39.010;2023-09-19T02:50:36;14.05;54.74
65396;HTU21D;52004;45.136;39.010;2023-09-19T02:53:02;14.04;54.78
65396;HTU21D;52004;45.136;39.010;2023-09-19T02:55:30;14.03;54.78
65396;HTU21D;52004;45.136;39.010;2023-09-19T02:57:57;14.01;54.81
65396;HTU21D;52004;45.136;39.010;2023-09-19T03:00:23;14.01;54.81
65396;HTU21D;52004;45.136;39.010;2023-09-19T03:02:50;14.01;54.81
65396;HTU21D;52004;45.136;39.010;2023-09-19T03:05:17;14.00;54.83
65396;HTU21D;52004;45.136;39.010;2023-09-19T03:07:43;13.99;54.87
65396;HTU21D;52004;45.136;39.010;2023-09-19T03:10:11;13.99;54.89
65396;HTU21D;52004;45.136;39.010;2023-09-19T03:12:37;14.00;54.91
65396;HTU21D;52004;45.136;39.010;2023-09-19T03:15:06;13.99;54.93
65396;HTU21D;52004;45.136;39.010;2023-09-19T03:17:35;13.99;54.95
65396;HTU21D;52004;45.136;39.010;2023-09-19T03:20:02;13.99;54.97
65396;HTU21D;52004;45.136;39.010;2023-09-19T03:22:28;13.98;55.01
65396;HTU21D;52004;45.136;39.010;2023-09-19T03:24:54;13.99;55.03
65396;HTU21D;52004;45.136;39.010;2023-09-19T03:27:21;14.00;55.06
65396;HTU21D;52004;45.136;39.010;2023-09-19T03:29:47;14.01;55.07
65396;HTU21D;52004;45.136;39.010;2023-09-19T03:32:13;14.03;55.10
65396;HTU21D;52004;45.136;39.010;2023-09-19T03:34:39;14.05;55.10
65396;HTU21D;52004;45.136;39.010;2023-09-19T03:37:09;14.07;55.13
65396;HTU21D;52004;45.136;39.010;2023-09-19T03:39:36;14.07;55.10
65396;HTU21D;52004;45.136;39.010;2023-09-19T03:42:02;14.09;55.15
65396;HTU21D;52004;45.136;39.010;2023-09-19T03:44:33;14.11;55.21
65396;HTU21D;52004;45.136;39.010;2023-09-19T03:46:59;14.15;55.23
65396;HTU21D;52004;45.136;39.010;2023-09-19T03:49:28;14.17;55.26
65396;HTU21D;52004;45.136;39.010;2023-09-19T03:51:56;14.19;55.28
65396;HTU21D;52004;45.136;39.010;2023-09-19T03:54:23;14.20;55.29
65396;HTU21D;52004;45.136;39.010;2023-09-19T03:56:49;14.24;55.29
65396;HTU21D;52004;45.136;39.010;2023-09-19T03:59:15;14.25;55.33
65396;HTU21D;52004;45.136;39.010;2023-09-19T04:01:41;14.29;55.30
65396;HTU21D;52004;45.136;39.010;2023-09-19T04:04:08;14.33;55.33
65396;HTU21D;52004;45.136;39.010;2023-09-19T04:06:35;14.37;55.42
65396;HTU21D;52004;45.136;39.010;2023-09-19T04:09:02;14.42;55.43
65396;HTU21D;52004;45.136;39.010;2023-09-19T04:11:30;14.50;55.44
65396;HTU21D;52004;45.136;39.010;2023-09-19T04:13:56;14.55;55.45
65396;HTU21D;52004;45.136;39.010;2023-09-19T04:16:22;14.62;55.43
65396;HTU21D;52004;45.136;39.010;2023-09-19T04:18:48;14.69;55.45
65396;HTU21D;52004;45.136;39.010;2023-09-19T04:21:14;14.79;55.51
65396;HTU21D;52004;45.136;39.010;2023-09-19T04:23:40;14.87;55.44
65396;HTU21D;52004;45.136;39.010;2023-09-19T04:26:06;14.98;55.50
65396;HTU21D;52004;45.136;39.010;2023-09-19T04:28:34;15.09;55.49
65396;HTU21D;52004;45.136;39.010;2023-09-19T04:31:04;15.19;55.49
65396;HTU21D;52004;45.136;39.010;2023-09-19T04:33:30;15.30;55.49
65396;HTU21D;52004;45.136;39.010;2023-09-19T04:35:56;15.39;55.48
65396;HTU21D;52004;45.136;39.010;2023-09-19T04:38:21;15.51;55.48
65396;HTU21D;52004;45.136;39.010;2023-09-19T04:40:48;15.60;55.46
65396;HTU21D;52004;45.136;39.010;2023-09-19T04:43:14;15.71;55.45
65396;HTU21D;52004;45.136;39.010;2023-09-19T04:45:41;15.80;55.42
65396;HTU21D;52004;45.136;39.010;2023-09-19T04:48:07;15.90;55.39
65396;HTU21D;52004;45.136;39.010;2023-09-19T04:50:34;16.01;55.40
65396;HTU21D;52004;45.136;39.010;2023-09-19T04:52:59;16.12;55.41
65396;HTU21D;52004;45.136;39.010;2023-09-19T04:55:26;16.24;55.40
65396;HTU21D;52004;45.136;39.010;2023-09-19T04:57:53;16.35;55.32
65396;HTU21D;52004;45.136;39.010;2023-09-19T05:00:20;16.48;55.34
65396;HTU21D;52004;45.136;39.010;2023-09-19T05:02:49;16.61;55.31
65396;HTU21D;52004;45.136;39.010;2023-09-19T05:05:15;16.74;55.23
65396;HTU21D;52004;45.136;39.010;2023-09-19T05:07:42;16.87;55.21
65396;HTU21D;52004;45.136;39.010;2023-09-19T05:10:09;17.00;55.16
65396;HTU21D;52004;45.136;39.010;2023-09-19T05:12:39;17.13;55.15
65396;HTU21D;52004;45.136;39.010;2023-09-19T05:15:05;17.24;55.17
65396;HTU21D;52004;45.136;39.010;2023-09-19T05:17:34;17.38;55.17
65396;HTU21D;52004;45.136;39.010;2023-09-19T05:20:01;17.52;55.16
65396;HTU21D;52004;45.136;39.010;2023-09-19T05:22:43;17.69;55.17
65396;HTU21D;52004;45.136;39.010;2023-09-19T05:25:11;17.83;55.13
65396;HTU21D;52004;45.136;39.010;2023-09-19T05:27:44;17.99;55.15
65396;HTU21D;52004;45.136;39.010;2023-09-19T05:33:05;18.27;55.04
65396;HTU21D;52004;45.136;39.010;2023-09-19T05:35:31;18.40;54.94
65396;HTU21D;52004;45.136;39.010;2023-09-19T05:37:57;18.53;54.97
65396;HTU21D;52004;45.136;39.010;2023-09-19T05:40:23;18.65;54.94
65396;HTU21D;52004;45.136;39.010;2023-09-19T05:42:50;18.78;54.89
65396;HTU21D;52004;45.136;39.010;2023-09-19T05:45:16;18.87;54.84
65396;HTU21D;52004;45.136;39.010;2023-09-19T05:47:49;19.01;54.87
65396;HTU21D;52004;45.136;39.010;2023-09-19T05:50:15;19.15;54.91
65396;HTU21D;52004;45.136;39.010;2023-09-19T05:52:42;19.28;54.80
65396;HTU21D;52004;45.136;39.010;2023-09-19T05:55:11;19.40;54.73
65396;HTU21D;52004;45.136;39.010;2023-09-19T05:57:37;19.53;54.68
65396;HTU21D;52004;45.136;39.010;2023-09-19T06:00:08;19.67;54.75
65396;HTU21D;52004;45.136;39.010;2023-09-19T06:02:40;19.82;54.68
65396;HTU21D;52004;45.136;39.010;2023-09-19T06:05:06;19.95;54.55
65396;HTU21D;52004;45.136;39.010;2023-09-19T06:07:32;20.06;54.46
65396;HTU21D;52004;45.136;39.010;2023-09-19T06:10:05;20.18;54.53
65396;HTU21D;52004;45.136;39.010;2023-09-19T06:12:33;20.33;54.53
65396;HTU21D;52004;45.136;39.010;2023-09-19T06:15:03;20.49;54.45
65396;HTU21D;52004;45.136;39.010;2023-09-19T06:17:31;20.61;54.26
65396;HTU21D;52004;45.136;39.010;2023-09-19T06:19:57;20.72;54.26
65396;HTU21D;52004;45.136;39.010;2023-09-19T06:22:23;20.86;54.10
65396;HTU21D;52004;45.136;39.010;2023-09-19T06:24:49;20.98;54.04
65396;HTU21D;52004;45.136;39.010;2023-09-19T06:27:15;21.07;54.09
65396;HTU21D;52004;45.136;39.010;2023-09-19T06:29:41;21.24;54.05
65396;HTU21D;52004;45.136;39.010;2023-09-19T06:32:08;21.37;53.88
65396;HTU21D;52004;45.136;39.010;2023-09-19T06:34:34;21.48;53.70
65396;HTU21D;52004;45.136;39.010;2023-09-19T06:37:00;21.59;53.70
65396;HTU21D;52004;45.136;39.010;2023-09-19T06:39:26;21.69;53.51
65396;HTU21D;52004;45.136;39.010;2023-09-19T06:41:52;21.79;53.46
65396;HTU21D;52004;45.136;39.010;2023-09-19T06:44:21;21.90;53.50
65396;HTU21D;52004;45.136;39.010;2023-09-19T06:46:50;22.05;53.47
65396;HTU21D;52004;45.136;39.010;2023-09-19T06:49:17;22.19;53.37
65396;HTU21D;52004;45.136;39.010;2023-09-19T06:51:43;22.31;53.20
65396;HTU21D;52004;45.136;39.010;2023-09-19T06:54:09;22.41;53.01
65396;HTU21D;52004;45.136;39.010;2023-09-19T06:56:35;22.52;52.91
65396;HTU21D;52004;45.136;39.010;2023-09-19T06:59:01;22.62;52.99
65396;HTU21D;52004;45.136;39.010;2023-09-19T07:01:28;22.76;52.89
65396;HTU21D;52004;45.136;39.010;2023-09-19T07:03:54;22.88;52.65
65396;HTU21D;52004;45.136;39.010;2023-09-19T07:06:20;22.96;52.40
65396;HTU21D;52004;45.136;39.010;2023-09-19T07:08:46;23.03;52.42
65396;HTU21D;52004;45.136;39.010;2023-09-19T07:11:12;23.12;52.38
65396;HTU21D;52004;45.136;39.010;2023-09-19T07:13:38;23.22;52.37
65396;HTU21D;52004;45.136;39.010;2023-09-19T07:16:05;23.34;52.20
65396;HTU21D;52004;45.136;39.010;2023-09-19T07:18:31;23.45;52.10
65396;HTU21D;52004;45.136;39.010;2023-09-19T07:20:59;0.00;51.97
65396;HTU21D;52004;45.136;39.010;2023-09-19T07:23:30;23.62;51.78
65396;HTU21D;52004;45.136;39.010;2023-09-19T07:26:03;23.72;51.63
65396;HTU21D;52004;45.136;39.010;2023-09-19T07:28:31;23.77;51.50
65396;HTU21D;52004;45.136;39.010;2023-09-19T07:30:56;23.82;51.57
65396;HTU21D;52004;45.136;39.010;2023-09-19T07:33:23;0.00;51.50
65396;HTU21D;52004;45.136;39.010;2023-09-19T07:35:52;24.03;51.40
65396;HTU21D;52004;45.136;39.010;2023-09-19T07:38:18;24.13;51.43
65396;HTU21D;52004;45.136;39.010;2023-09-19T07:40:44;24.23;51.37
65396;HTU21D;52004;45.136;39.010;2023-09-19T07:43:10;24.35;51.14
65396;HTU21D;52004;45.136;39.010;2023-09-19T07:45:36;24.44;51.00
65396;HTU21D;52004;45.136;39.010;2023-09-19T07:48:02;24.49;50.88
65396;HTU21D;52004;45.136;39.010;2023-09-19T07:50:33;24.54;50.66
65396;HTU21D;52004;45.136;39.010;2023-09-19T07:52:59;24.60;50.54
65396;HTU21D;52004;45.136;39.010;2023-09-19T07:55:25;24.64;50.49
65396;HTU21D;52004;45.136;39.010;2023-09-19T07:57:52;24.70;50.43
65396;HTU21D;52004;45.136;39.010;2023-09-19T08:00:18;24.77;50.42
65396;HTU21D;52004;45.136;39.010;2023-09-19T08:02:44;24.88;50.42
65396;HTU21D;52004;45.136;39.010;2023-09-19T08:05:11;25.00;50.42
65396;HTU21D;52004;45.136;39.010;2023-09-19T08:07:38;25.09;50.13
65396;HTU21D;52004;45.136;39.010;2023-09-19T08:10:04;25.17;49.92
65396;HTU21D;52004;45.136;39.010;2023-09-19T08:12:33;25.22;49.97
65396;HTU21D;52004;45.136;39.010;2023-09-19T08:15:04;25.30;49.81
65396;HTU21D;52004;45.136;39.010;2023-09-19T08:17:34;25.35;49.58
65396;HTU21D;52004;45.136;39.010;2023-09-19T08:20:00;25.42;49.69
65396;HTU21D;52004;45.136;39.010;2023-09-19T08:22:26;25.52;49.58
65396;HTU21D;52004;45.136;39.010;2023-09-19T08:24:53;25.61;49.48
65396;HTU21D;52004;45.136;39.010;2023-09-19T08:27:18;25.69;49.53
65396;HTU21D;52004;45.136;39.010;2023-09-19T08:29:45;25.78;49.31
65396;HTU21D;52004;45.136;39.010;2023-09-19T08:32:11;25.84;49.26
65396;HTU21D;52004;45.136;39.010;2023-09-19T08:34:37;25.94;49.08
65396;HTU21D;52004;45.136;39.010;2023-09-19T08:37:03;26.02;49.11
65396;HTU21D;52004;45.136;39.010;2023-09-19T08:39:29;26.11;49.05
65396;HTU21D;52004;45.136;39.010;2023-09-19T08:41:59;26.20;48.81
65396;HTU21D;52004;45.136;39.010;2023-09-19T08:44:26;26.26;48.82
65396;HTU21D;52004;45.136;39.010;2023-09-19T08:46:54;26.37;48.84
65396;HTU21D;52004;45.136;39.010;2023-09-19T08:51:51;26.58;48.52
65396;HTU21D;52004;45.136;39.010;2023-09-19T08:54:24;0.00;48.47
65396;HTU21D;52004;45.136;39.010;2023-09-19T08:56:53;26.73;48.38
65396;HTU21D;52004;45.136;39.010;2023-09-19T08:59:22;26.79;48.28
65396;HTU21D;52004;45.136;39.010;2023-09-19T09:01:53;26.85;48.24
65396;HTU21D;52004;45.136;39.010;2023-09-19T09:04:19;26.91;48.17
65396;HTU21D;52004;45.136;39.010;2023-09-19T09:06:45;26.97;48.31
65396;HTU21D;52004;45.136;39.010;2023-09-19T09:09:14;27.12;48.18
65396;HTU21D;52004;45.136;39.010;2023-09-19T09:11:40;27.24;48.02
65396;HTU21D;52004;45.136;39.010;2023-09-19T09:14:06;27.32;47.72
65396;HTU21D;52004;45.136;39.010;2023-09-19T09:16:35;27.34;47.57
65396;HTU21D;52004;45.136;39.010;2023-09-19T09:19:01;27.36;47.58
65396;HTU21D;52004;45.136;39.010;2023-09-19T09:21:27;27.39;47.57
65396;HTU21D;52004;45.136;39.010;2023-09-19T09:23:54;27.44;47.60
65396;HTU21D;52004;45.136;39.010;2023-09-19T09:29:04;27.68;47.54
65396;HTU21D;52004;45.136;39.010;2023-09-19T09:31:30;27.79;47.37
65396;HTU21D;52004;45.136;39.010;2023-09-19T09:33:57;27.87;47.19
65396;HTU21D;52004;45.136;39.010;2023-09-19T09:36:34;27.91;46.98
65396;HTU21D;52004;45.136;39.010;2023-09-19T09:39:00;27.95;47.07
65396;HTU21D;52004;45.136;39.010;2023-09-19T09:41:41;28.04;46.99
65396;HTU21D;52004;45.136;39.010;2023-09-19T09:44:14;28.12;46.83
65396;HTU21D;52004;45.136;39.010;2023-09-19T09:46:45;28.17;46.68
65396;HTU21D;52004;45.136;39.010;2023-09-19T09:49:23;28.20;46.74
65396;HTU21D;52004;45.136;39.010;2023-09-19T09:52:00;28.30;46.58
65396;HTU21D;52004;45.136;39.010;2023-09-19T09:54:28;28.40;46.51
65396;HTU21D;52004;45.136;39.010;2023-09-19T09:57:03;28.45;46.35
65396;HTU21D;52004;45.136;39.010;2023-09-19T10:02:19;28.59;46.30
65396;HTU21D;52004;45.136;39.010;2023-09-19T10:04:50;28.67;45.94
65396;HTU21D;52004;45.136;39.010;2023-09-19T10:07:35;28.65;45.54
65396;HTU21D;52004;45.136;39.010;2023-09-19T10:10:06;28.59;45.69
65396;HTU21D;52004;45.136;39.010;2023-09-19T10:12:47;28.61;45.67
65396;HTU21D;52004;45.136;39.010;2023-09-19T10:15:17;28.63;45.71
65396;HTU21D;52004;45.136;39.010;2023-09-19T10:17:46;28.72;45.76
65396;HTU21D;52004;45.136;39.010;2023-09-19T10:20:16;28.82;45.52
65396;HTU21D;52004;45.136;39.010;2023-09-19T10:23:10;28.87;45.24
65396;HTU21D;52004;45.136;39.010;2023-09-19T10:25:39;28.91;45.31
65396;HTU21D;52004;45.136;39.010;2023-09-19T10:28:06;28.98;45.26
65396;HTU21D;52004;45.136;39.010;2023-09-19T10:30:36;29.03;45.17
65396;HTU21D;52004;45.136;39.010;2023-09-19T10:33:04;29.07;45.12
65396;HTU21D;52004;45.136;39.010;2023-09-19T10:35:33;29.11;45.06
65396;HTU21D;52004;45.136;39.010;2023-09-19T10:38:00;29.15;44.94
65396;HTU21D;52004;45.136;39.010;2023-09-19T10:40:27;29.17;45.00
65396;HTU21D;52004;45.136;39.010;2023-09-19T10:43:03;29.21;44.93
65396;HTU21D;52004;45.136;39.010;2023-09-19T10:45:33;29.26;44.85
65396;HTU21D;52004;45.136;39.010;2023-09-19T10:47:59;29.31;44.73
65396;HTU21D;52004;45.136;39.010;2023-09-19T10:50:26;29.32;44.44
65396;HTU21D;52004;45.136;39.010;2023-09-19T10:52:56;29.29;44.29
65396;HTU21D;52004;45.136;39.010;2023-09-19T10:55:30;29.24;44.34
65396;HTU21D;52004;45.136;39.010;2023-09-19T10:57:57;29.21;44.19
65396;HTU21D;52004;45.136;39.010;2023-09-19T11:03:21;29.21;44.40
65396;HTU21D;52004;45.136;39.010;2023-09-19T11:06:06;29.29;44.15
65396;HTU21D;52004;45.136;39.010;2023-09-19T11:08:51;29.30;44.08
65396;HTU21D;52004;45.136;39.010;2023-09-19T11:22:43;29.61;43.90
65396;HTU21D;52004;45.136;39.010;2023-09-19T11:30:33;29.76;43.85
65396;HTU21D;52004;45.136;39.010;2023-09-19T11:36:07;29.86;43.71
65396;HTU21D;52004;45.136;39.010;2023-09-19T11:43:50;30.00;43.49
65396;HTU21D;52004;45.136;39.010;2023-09-19T11:46:17;29.96;42.96
65396;HTU21D;52004;45.136;39.010;2023-09-19T11:48:49;29.92;43.14
65396;HTU21D;52004;45.136;39.010;2023-09-19T11:51:16;29.89;43.16
65396;HTU21D;52004;45.136;39.010;2023-09-19T11:53:50;29.88;43.13
65396;HTU21D;52004;45.136;39.010;2023-09-19T11:56:16;29.89;43.15
65396;HTU21D;52004;45.136;39.010;2023-09-19T11:58:46;29.87;43.03
65396;HTU21D;52004;45.136;39.010;2023-09-19T12:01:15;29.88;43.07
65396;HTU21D;52004;45.136;39.010;2023-09-19T12:03:46;29.90;43.06
65396;HTU21D;52004;45.136;39.010;2023-09-19T12:06:14;29.93;42.96
65396;HTU21D;52004;45.136;39.010;2023-09-19T12:08:41;29.93;42.92
65396;HTU21D;52004;45.136;39.010;2023-09-19T12:11:11;29.93;42.93
65396;HTU21D;52004;45.136;39.010;2023-09-19T12:13:44;29.94;42.93
65396;HTU21D;52004;45.136;39.010;2023-09-19T12:16:16;29.93;42.84
65396;HTU21D;52004;45.136;39.010;2023-09-19T12:18:45;29.93;42.84
65396;HTU21D;52004;45.136;39.010;2023-09-19T12:21:25;29.91;42.84
65396;HTU21D;52004;45.136;39.010;2023-09-19T12:24:11;29.89;42.74
65396;HTU21D;52004;45.136;39.010;2023-09-19T12:26:40;29.85;42.56
65396;HTU21D;52004;45.136;39.010;2023-09-19T12:29:16;29.77;42.58
65396;HTU21D;52004;45.136;39.010;2023-09-19T12:31:55;29.72;42.51
65396;HTU21D;52004;45.136;39.010;2023-09-19T12:34:29;29.64;42.42
65396;HTU21D;52004;45.136;39.010;2023-09-19T12:37:15;29.60;42.57
65396;HTU21D;52004;45.136;39.010;2023-09-19T12:39:46;29.62;42.61
65396;HTU21D;52004;45.136;39.010;2023-09-19T12:42:15;29.64;42.58
65396;HTU21D;52004;45.136;39.010;2023-09-19T12:44:44;29.64;42.50
65396;HTU21D;52004;45.136;39.010;2023-09-19T12:47:11;29.64;42.51
65396;HTU21D;52004;45.136;39.010;2023-09-19T12:50:04;29.62;42.42
65396;HTU21D;52004;45.136;39.010;2023-09-19T12:52:23;29.62;42.41
65396;HTU21D;52004;45.136;39.010;2023-09-19T12:54:51;29.58;42.34
65396;HTU21D;52004;45.136;39.010;2023-09-19T12:57:24;29.57;42.28
65396;HTU21D;52004;45.136;39.010;2023-09-19T12:59:54;29.51;42.27
65396;HTU21D;52004;45.136;39.010;2023-09-19T13:02:20;29.49;42.13
65396;HTU21D;52004;45.136;39.010;2023-09-19T13:04:52;29.48;42.26
65396;HTU21D;52004;45.136;39.010;2023-09-19T13:10:04;29.43;42.12
65396;HTU21D;52004;45.136;39.010;2023-09-19T13:12:37;29.38;42.11
65396;HTU21D;52004;45.136;39.010;2023-09-19T13:15:10;29.34;42.16
65396;HTU21D;52004;45.136;39.010;2023-09-19T13:17:42;29.34;42.16
65396;HTU21D;52004;45.136;39.010;2023-09-19T13:20:19;29.34;42.12
65396;HTU21D;52004;45.136;39.010;2023-09-19T13:22:46;29.33;42.09
65396;HTU21D;52004;45.136;39.010;2023-09-19T13:25:19;29.29;41.88
65396;HTU21D;52004;45.136;39.010;2023-09-19T13:27:53;29.23;41.90
65396;HTU21D;52004;45.136;39.010;2023-09-19T13:30:25;29.18;41.77
65396;HTU21D;52004;45.136;39.010;2023-09-19T13:32:52;29.13;41.86
65396;HTU21D;52004;45.136;39.010;2023-09-19T13:35:19;29.11;41.89
65396;HTU21D;52004;45.136;39.010;2023-09-19T13:37:46;29.11;41.94
65396;HTU21D;52004;45.136;39.010;2023-09-19T13:40:17;29.07;41.87
65396;HTU21D;52004;45.136;39.010;2023-09-19T13:42:43;29.03;41.84
65396;HTU21D;52004;45.136;39.010;2023-09-19T13:45:09;28.99;41.84
65396;HTU21D;52004;45.136;39.010;2023-09-19T13:47:38;28.92;41.64
65396;HTU21D;52004;45.136;39.010;2023-09-19T13:50:04;28.83;41.74
65396;HTU21D;52004;45.136;39.010;2023-09-19T13:52:30;28.75;41.80
65396;HTU21D;52004;45.136;39.010;2023-09-19T13:54:56;0.00;41.82
65396;HTU21D;52004;45.136;39.010;2023-09-19T13:57:23;0.00;41.86
65396;HTU21D;52004;45.136;39.010;2023-09-19T13:59:49;28.54;41.91
65396;HTU21D;52004;45.136;39.010;2023-09-19T14:02:15;28.49;41.86
65396;HTU21D;52004;45.136;39.010;2023-09-19T14:04:44;28.42;41.95
65396;HTU21D;52004;45.136;39.010;2023-09-19T14:07:10;28.34;41.97
65396;HTU21D;52004;45.136;39.010;2023-09-19T14:09:36;28.25;42.06
65396;HTU21D;52004;45.136;39.010;2023-09-19T14:12:02;0.00;42.09
65396;HTU21D;52004;45.136;39.010;2023-09-19T14:14:28;28.08;42.13
65396;HTU21D;52004;45.136;39.010;2023-09-19T14:16:54;28.00;42.18
65396;HTU21D;52004;45.136;39.010;2023-09-19T14:19:20;27.91;42.26
65396;HTU21D;52004;45.136;39.010;2023-09-19T14:21:46;27.84;42.29
65396;HTU21D;52004;45.136;39.010;2023-09-19T14:24:16;27.76;42.28
65396;HTU21D;52004;45.136;39.010;2023-09-19T14:26:43;27.68;42.19
65396;HTU21D;52004;45.136;39.010;2023-09-19T14:29:09;27.58;42.24
65396;HTU21D;52004;45.136;39.010;2023-09-19T14:31:37;27.49;42.31
65396;HTU21D;52004;45.136;39.010;2023-09-19T14:34:04;27.40;42.33
65396;HTU21D;52004;45.136;39.010;2023-09-19T14:36:31;27.30;42.29
65396;HTU21D;52004;45.136;39.010;2023-09-19T14:38:56;27.23;42.26
65396;HTU21D;52004;45.136;39.010;2023-09-19T14:41:23;27.15;42.34
65396;HTU21D;52004;45.136;39.010;2023-09-19T14:43:51;27.07;42.32
65396;HTU21D;52004;45.136;39.010;2023-09-19T14:46:18;26.99;42.38
65396;HTU21D;52004;45.136;39.010;2023-09-19T14:48:45;26.94;42.39
65396;HTU21D;52004;45.136;39.010;2023-09-19T14:51:14;26.85;42.38
65396;HTU21D;52004;45.136;39.010;2023-09-19T14:53:40;26.76;42.41
65396;HTU21D;52004;45.136;39.010;2023-09-19T14:56:07;26.67;42.46
65396;HTU21D;52004;45.136;39.010;2023-09-19T14:58:34;26.58;42.46
65396;HTU21D;52004;45.136;39.010;2023-09-19T15:01:06;26.51;42.48
65396;HTU21D;52004;45.136;39.010;2023-09-19T15:03:32;26.42;42.48
65396;HTU21D;52004;45.136;39.010;2023-09-19T15:05:59;26.34;42.54
65396;HTU21D;52004;45.136;39.010;2023-09-19T15:08:26;26.26;42.57
65396;HTU21D;52004;45.136;39.010;2023-09-19T15:10:54;26.19;42.58
65396;HTU21D;52004;45.136;39.010;2023-09-19T15:13:21;26.10;42.60
65396;HTU21D;52004;45.136;39.010;2023-09-19T15:15:47;26.02;42.61
65396;HTU21D;52004;45.136;39.010;2023-09-19T15:18:14;25.94;42.64
65396;HTU21D;52004;45.136;39.010;2023-09-19T15:20:43;25.84;42.65
65396;HTU21D;52004;45.136;39.010;2023-09-19T15:23:09;25.75;42.68
65396;HTU21D;52004;45.136;39.010;2023-09-19T15:25:35;25.65;42.73
65396;HTU21D;52004;45.136;39.010;2023-09-19T15:28:01;25.57;42.77
65396;HTU21D;52004;45.136;39.010;2023-09-19T15:30:38;25.47;42.73
65396;HTU21D;52004;45.136;39.010;2023-09-19T15:33:04;25.39;42.81
65396;HTU21D;52004;45.136;39.010;2023-09-19T15:35:30;25.30;42.84
65396;HTU21D;52004;45.136;39.010;2023-09-19T15:37:56;25.20;42.88
65396;HTU21D;52004;45.136;39.010;2023-09-19T15:40:24;25.09;42.90
65396;HTU21D;52004;45.136;39.010;2023-09-19T15:42:50;0.00;42.98
65396;HTU21D;52004;45.136;39.010;2023-09-19T15:45:17;24.89;43.03
65396;HTU21D;52004;45.136;39.010;2023-09-19T15:47:44;24.79;43.06
65396;HTU21D;52004;45.136;39.010;2023-09-19T15:50:10;24.70;43.12
65396;HTU21D;52004;45.136;39.010;2023-09-19T15:52:39;24.61;43.15
65396;HTU21D;52004;45.136;39.010;2023-09-19T15:55:05;24.54;43.21
65396;HTU21D;52004;45.136;39.010;2023-09-19T15:58:00;24.42;43.25
65396;HTU21D;52004;45.136;39.010;2023-09-19T16:00:26;0.00;43.29
65396;HTU21D;52004;45.136;39.010;2023-09-19T16:02:52;24.28;43.34
65396;HTU21D;52004;45.136;39.010;2023-09-19T16:05:18;24.21;43.37
65396;HTU21D;52004;45.136;39.010;2023-09-19T16:07:44;24.12;43.42
65396;HTU21D;52004;45.136;39.010;2023-09-19T16:10:11;24.03;43.45